読者です 読者をやめる 読者になる 読者になる

今朝の羽田(2017/04/15)

HKE624/B-LEC(A321)

ANA880/JA871A(B789)

ANA8554/JA825A(B788)

ANA968/JA802A(B788)

JAL34/JA701J(B772)

JAL36/JA703J(B772)

*TTW217/B-50006(A320)

ANA844/JA890A(B789)

ANA850/JA883A(B789)

ANA822/JA608A(B763)

QFA25/VH-OEG(B744)

THA682/HSTGO(B744)

*APJ859/JA808P(A320)

ANA856/JA886A(B789)

ANA204/JA790A(B77W)

SIA636/9V-SWZ(B77W)

*AAR177/HL7741(A333)

*HKE625/B-LEC(A321)

JAL70/JA825J(B788)

BAW7/G-STBJ(B77W)

RJTT 142000Z 20013KT CAVOK 17/11 Q1014 NOSIG RMK A2995

RJTT 142100Z 21018KT 9999 FEW030 BKN/// 17/11 Q1014 NOSIG

RJTT 142200Z 19016KT 9999 FEW035 SCT/// 18/12 Q1014 NOSIG RMK 1CU035 A2996

今朝の羽田は晴れています。